sensor_id;sensor_type;location;lat;lon;timestamp;P1;durP1;ratioP1;P2;durP2;ratioP2
45114;SDS011;30877;43.706;10.780;2023-03-23T00:01:07;7.70;;;4.88;;
45114;SDS011;30877;43.706;10.780;2023-03-23T00:03:45;5.90;;;4.65;;
45114;SDS011;30877;43.706;10.780;2023-03-23T00:06:15;5.38;;;4.38;;
45114;SDS011;30877;43.706;10.780;2023-03-23T00:08:45;4.93;;;3.80;;
45114;SDS011;30877;43.706;10.780;2023-03-23T00:11:13;5.82;;;3.90;;
45114;SDS011;30877;43.706;10.780;2023-03-23T00:13:40;6.03;;;4.03;;
45114;SDS011;30877;43.706;10.780;2023-03-23T00:16:07;7.93;;;4.38;;
45114;SDS011;30877;43.706;10.780;2023-03-23T00:18:43;7.35;;;3.78;;
45114;SDS011;30877;43.706;10.780;2023-03-23T00:21:10;6.80;;;4.03;;
45114;SDS011;30877;43.706;10.780;2023-03-23T00:23:40;5.45;;;4.00;;
45114;SDS011;30877;43.706;10.780;2023-03-23T00:26:10;6.18;;;4.28;;
45114;SDS011;30877;43.706;10.780;2023-03-23T00:28:37;5.70;;;3.53;;
45114;SDS011;30877;43.706;10.780;2023-03-23T00:31:05;6.68;;;3.58;;
45114;SDS011;30877;43.706;10.780;2023-03-23T00:33:34;6.05;;;3.47;;
45114;SDS011;30877;43.706;10.780;2023-03-23T00:36:06;7.15;;;3.20;;
45114;SDS011;30877;43.706;10.780;2023-03-23T00:38:49;4.25;;;2.80;;
45114;SDS011;30877;43.706;10.780;2023-03-23T00:41:19;4.13;;;2.90;;
45114;SDS011;30877;43.706;10.780;2023-03-23T00:43:47;4.78;;;2.85;;
45114;SDS011;30877;43.706;10.780;2023-03-23T00:46:14;3.60;;;2.88;;
45114;SDS011;30877;43.706;10.780;2023-03-23T00:48:40;6.75;;;3.38;;
45114;SDS011;30877;43.706;10.780;2023-03-23T00:51:10;4.53;;;3.60;;
45114;SDS011;30877;43.706;10.780;2023-03-23T00:53:38;3.95;;;3.38;;
45114;SDS011;30877;43.706;10.780;2023-03-23T00:56:07;6.55;;;3.55;;
45114;SDS011;30877;43.706;10.780;2023-03-23T00:58:34;5.32;;;3.20;;
45114;SDS011;30877;43.706;10.780;2023-03-23T01:01:01;3.80;;;3.30;;
45114;SDS011;30877;43.706;10.780;2023-03-23T01:03:28;6.20;;;3.58;;
45114;SDS011;30877;43.706;10.780;2023-03-23T01:05:58;4.85;;;3.65;;
45114;SDS011;30877;43.706;10.780;2023-03-23T01:08:31;6.03;;;3.58;;
45114;SDS011;30877;43.706;10.780;2023-03-23T01:11:01;4.43;;;4.03;;
45114;SDS011;30877;43.706;10.780;2023-03-23T01:13:33;7.97;;;4.80;;
45114;SDS011;30877;43.706;10.780;2023-03-23T01:16:00;8.25;;;4.03;;
45114;SDS011;30877;43.706;10.780;2023-03-23T01:18:27;4.40;;;3.58;;
45114;SDS011;30877;43.706;10.780;2023-03-23T01:20:54;4.25;;;3.25;;
45114;SDS011;30877;43.706;10.780;2023-03-23T01:23:20;4.65;;;3.83;;
45114;SDS011;30877;43.706;10.780;2023-03-23T01:25:47;5.25;;;3.78;;
45114;SDS011;30877;43.706;10.780;2023-03-23T01:28:14;5.45;;;4.63;;
45114;SDS011;30877;43.706;10.780;2023-03-23T01:30:43;7.72;;;4.75;;
45114;SDS011;30877;43.706;10.780;2023-03-23T01:33:09;7.15;;;4.72;;
45114;SDS011;30877;43.706;10.780;2023-03-23T01:35:37;5.70;;;4.32;;
45114;SDS011;30877;43.706;10.780;2023-03-23T01:38:04;7.65;;;5.18;;
45114;SDS011;30877;43.706;10.780;2023-03-23T01:40:30;8.05;;;5.60;;
45114;SDS011;30877;43.706;10.780;2023-03-23T01:42:57;8.18;;;5.50;;
45114;SDS011;30877;43.706;10.780;2023-03-23T01:45:28;6.55;;;5.50;;
45114;SDS011;30877;43.706;10.780;2023-03-23T01:48:06;12.20;;;5.82;;
45114;SDS011;30877;43.706;10.780;2023-03-23T01:50:38;8.70;;;5.38;;
45114;SDS011;30877;43.706;10.780;2023-03-23T01:53:10;7.75;;;5.35;;
45114;SDS011;30877;43.706;10.780;2023-03-23T01:55:37;7.50;;;5.45;;
45114;SDS011;30877;43.706;10.780;2023-03-23T01:58:07;6.97;;;6.25;;
45114;SDS011;30877;43.706;10.780;2023-03-23T02:00:34;7.03;;;6.28;;
45114;SDS011;30877;43.706;10.780;2023-03-23T02:03:03;9.13;;;7.15;;
45114;SDS011;30877;43.706;10.780;2023-03-23T02:05:36;10.35;;;8.32;;
45114;SDS011;30877;43.706;10.780;2023-03-23T02:08:23;8.70;;;6.75;;
45114;SDS011;30877;43.706;10.780;2023-03-23T02:10:50;8.15;;;6.30;;
45114;SDS011;30877;43.706;10.780;2023-03-23T02:13:16;7.80;;;6.28;;
45114;SDS011;30877;43.706;10.780;2023-03-23T02:15:45;10.00;;;5.97;;
45114;SDS011;30877;43.706;10.780;2023-03-23T02:18:17;8.20;;;6.70;;
45114;SDS011;30877;43.706;10.780;2023-03-23T02:21:12;7.90;;;6.43;;
45114;SDS011;30877;43.706;10.780;2023-03-23T02:24:27;10.77;;;6.35;;
45114;SDS011;30877;43.706;10.780;2023-03-23T02:27:06;9.75;;;7.03;;
45114;SDS011;30877;43.706;10.780;2023-03-23T02:32:40;8.60;;;6.78;;
45114;SDS011;30877;43.706;10.780;2023-03-23T02:35:29;12.50;;;7.55;;
45114;SDS011;30877;43.706;10.780;2023-03-23T02:38:00;12.30;;;8.32;;
45114;SDS011;30877;43.706;10.780;2023-03-23T02:40:32;12.23;;;7.38;;
45114;SDS011;30877;43.706;10.780;2023-03-23T02:43:03;8.35;;;7.50;;
45114;SDS011;30877;43.706;10.780;2023-03-23T02:45:35;13.18;;;8.10;;
45114;SDS011;30877;43.706;10.780;2023-03-23T02:48:03;11.10;;;8.18;;
45114;SDS011;30877;43.706;10.780;2023-03-23T02:50:32;13.85;;;9.02;;
45114;SDS011;30877;43.706;10.780;2023-03-23T02:53:03;14.65;;;10.43;;
45114;SDS011;30877;43.706;10.780;2023-03-23T02:55:33;16.60;;;9.55;;
45114;SDS011;30877;43.706;10.780;2023-03-23T02:58:07;13.70;;;9.00;;
45114;SDS011;30877;43.706;10.780;2023-03-23T03:00:34;12.75;;;8.95;;
45114;SDS011;30877;43.706;10.780;2023-03-23T03:03:02;12.18;;;8.23;;
45114;SDS011;30877;43.706;10.780;2023-03-23T03:05:35;22.33;;;12.75;;
45114;SDS011;30877;43.706;10.780;2023-03-23T03:08:11;24.33;;;13.77;;
45114;SDS011;30877;43.706;10.780;2023-03-23T03:10:48;15.38;;;9.68;;
45114;SDS011;30877;43.706;10.780;2023-03-23T03:13:20;12.88;;;9.02;;
45114;SDS011;30877;43.706;10.780;2023-03-23T03:15:54;17.30;;;10.57;;
45114;SDS011;30877;43.706;10.780;2023-03-23T03:18:26;16.70;;;10.80;;
45114;SDS011;30877;43.706;10.780;2023-03-23T03:21:02;13.52;;;9.10;;
45114;SDS011;30877;43.706;10.780;2023-03-23T03:23:33;17.33;;;10.40;;
45114;SDS011;30877;43.706;10.780;2023-03-23T03:26:02;16.00;;;11.15;;
45114;SDS011;30877;43.706;10.780;2023-03-23T03:28:44;15.38;;;9.48;;
45114;SDS011;30877;43.706;10.780;2023-03-23T03:31:15;12.00;;;8.70;;
45114;SDS011;30877;43.706;10.780;2023-03-23T03:33:44;13.23;;;8.30;;
45114;SDS011;30877;43.706;10.780;2023-03-23T03:36:17;9.57;;;7.70;;
45114;SDS011;30877;43.706;10.780;2023-03-23T03:38:47;9.98;;;8.18;;
45114;SDS011;30877;43.706;10.780;2023-03-23T03:41:16;13.23;;;8.00;;
45114;SDS011;30877;43.706;10.780;2023-03-23T03:43:45;10.82;;;7.38;;
45114;SDS011;30877;43.706;10.780;2023-03-23T03:46:12;12.27;;;7.47;;
45114;SDS011;30877;43.706;10.780;2023-03-23T03:48:38;11.07;;;7.50;;
45114;SDS011;30877;43.706;10.780;2023-03-23T03:51:05;8.85;;;7.10;;
45114;SDS011;30877;43.706;10.780;2023-03-23T03:53:37;7.85;;;6.28;;
45114;SDS011;30877;43.706;10.780;2023-03-23T03:56:04;10.00;;;6.43;;
45114;SDS011;30877;43.706;10.780;2023-03-23T03:58:38;8.48;;;5.70;;
45114;SDS011;30877;43.706;10.780;2023-03-23T04:01:22;6.03;;;4.97;;
45114;SDS011;30877;43.706;10.780;2023-03-23T04:03:50;5.93;;;4.43;;
45114;SDS011;30877;43.706;10.780;2023-03-23T04:06:26;9.02;;;4.93;;
45114;SDS011;30877;43.706;10.780;2023-03-23T04:08:55;6.88;;;5.18;;
45114;SDS011;30877;43.706;10.780;2023-03-23T04:11:22;6.35;;;4.70;;
45114;SDS011;30877;43.706;10.780;2023-03-23T04:13:50;6.70;;;4.45;;
45114;SDS011;30877;43.706;10.780;2023-03-23T04:16:22;9.18;;;4.82;;
45114;SDS011;30877;43.706;10.780;2023-03-23T04:18:49;6.20;;;4.78;;
45114;SDS011;30877;43.706;10.780;2023-03-23T04:21:16;5.30;;;4.50;;
45114;SDS011;30877;43.706;10.780;2023-03-23T04:23:47;5.63;;;3.70;;
45114;SDS011;30877;43.706;10.780;2023-03-23T04:26:16;7.13;;;4.63;;
45114;SDS011;30877;43.706;10.780;2023-03-23T04:28:48;8.50;;;3.75;;
45114;SDS011;30877;43.706;10.780;2023-03-23T04:31:21;6.05;;;3.80;;
45114;SDS011;30877;43.706;10.780;2023-03-23T04:33:54;6.57;;;3.70;;
45114;SDS011;30877;43.706;10.780;2023-03-23T04:36:24;5.70;;;3.58;;
45114;SDS011;30877;43.706;10.780;2023-03-23T04:39:00;5.78;;;3.50;;
45114;SDS011;30877;43.706;10.780;2023-03-23T04:41:36;6.25;;;4.10;;
45114;SDS011;30877;43.706;10.780;2023-03-23T04:44:22;5.65;;;3.50;;
45114;SDS011;30877;43.706;10.780;2023-03-23T04:47:00;8.10;;;4.13;;
45114;SDS011;30877;43.706;10.780;2023-03-23T04:49:31;5.15;;;3.63;;
45114;SDS011;30877;43.706;10.780;2023-03-23T04:52:10;6.95;;;4.80;;
45114;SDS011;30877;43.706;10.780;2023-03-23T04:54:48;6.32;;;4.40;;
45114;SDS011;30877;43.706;10.780;2023-03-23T04:57:17;4.38;;;3.97;;
45114;SDS011;30877;43.706;10.780;2023-03-23T04:59:56;5.18;;;3.97;;
45114;SDS011;30877;43.706;10.780;2023-03-23T05:02:36;5.35;;;4.05;;
45114;SDS011;30877;43.706;10.780;2023-03-23T05:05:06;5.25;;;4.28;;
45114;SDS011;30877;43.706;10.780;2023-03-23T05:07:33;4.72;;;4.05;;
45114;SDS011;30877;43.706;10.780;2023-03-23T05:10:01;7.85;;;4.38;;
45114;SDS011;30877;43.706;10.780;2023-03-23T05:12:31;9.13;;;5.13;;
45114;SDS011;30877;43.706;10.780;2023-03-23T05:15:02;9.15;;;6.20;;
45114;SDS011;30877;43.706;10.780;2023-03-23T05:17:31;7.50;;;5.82;;
45114;SDS011;30877;43.706;10.780;2023-03-23T05:20:00;7.40;;;5.40;;
45114;SDS011;30877;43.706;10.780;2023-03-23T05:22:40;7.85;;;5.55;;
45114;SDS011;30877;43.706;10.780;2023-03-23T05:25:08;8.70;;;5.90;;
45114;SDS011;30877;43.706;10.780;2023-03-23T05:27:40;10.52;;;5.43;;
45114;SDS011;30877;43.706;10.780;2023-03-23T05:30:22;8.48;;;5.30;;
45114;SDS011;30877;43.706;10.780;2023-03-23T05:32:49;7.25;;;6.18;;
45114;SDS011;30877;43.706;10.780;2023-03-23T05:35:34;6.32;;;5.18;;
45114;SDS011;30877;43.706;10.780;2023-03-23T05:38:02;6.03;;;5.43;;
45114;SDS011;30877;43.706;10.780;2023-03-23T05:40:30;8.18;;;5.63;;
45114;SDS011;30877;43.706;10.780;2023-03-23T05:43:04;7.22;;;5.32;;
45114;SDS011;30877;43.706;10.780;2023-03-23T05:45:51;7.03;;;5.70;;
45114;SDS011;30877;43.706;10.780;2023-03-23T05:48:17;6.43;;;5.50;;
45114;SDS011;30877;43.706;10.780;2023-03-23T05:50:44;6.03;;;5.45;;
45114;SDS011;30877;43.706;10.780;2023-03-23T05:53:11;6.35;;;5.38;;
45114;SDS011;30877;43.706;10.780;2023-03-23T05:55:38;5.40;;;4.80;;
45114;SDS011;30877;43.706;10.780;2023-03-23T05:58:17;6.68;;;4.72;;
45114;SDS011;30877;43.706;10.780;2023-03-23T06:00:45;10.13;;;4.90;;
45114;SDS011;30877;43.706;10.780;2023-03-23T06:03:24;6.85;;;5.20;;
45114;SDS011;30877;43.706;10.780;2023-03-23T06:05:57;7.05;;;4.78;;
45114;SDS011;30877;43.706;10.780;2023-03-23T06:08:32;6.20;;;4.43;;
45114;SDS011;30877;43.706;10.780;2023-03-23T06:10:59;6.05;;;4.70;;
45114;SDS011;30877;43.706;10.780;2023-03-23T06:13:29;5.07;;;4.22;;
45114;SDS011;30877;43.706;10.780;2023-03-23T06:16:04;6.65;;;4.35;;
45114;SDS011;30877;43.706;10.780;2023-03-23T06:18:49;6.32;;;4.82;;
45114;SDS011;30877;43.706;10.780;2023-03-23T06:21:22;5.72;;;4.60;;
45114;SDS011;30877;43.706;10.780;2023-03-23T06:23:56;5.22;;;4.70;;
45114;SDS011;30877;43.706;10.780;2023-03-23T06:26:28;6.28;;;4.82;;
45114;SDS011;30877;43.706;10.780;2023-03-23T06:29:02;6.93;;;4.97;;
45114;SDS011;30877;43.706;10.780;2023-03-23T06:31:38;8.30;;;4.90;;
45114;SDS011;30877;43.706;10.780;2023-03-23T06:34:08;6.07;;;5.28;;
45114;SDS011;30877;43.706;10.780;2023-03-23T06:36:55;8.18;;;4.85;;
45114;SDS011;30877;43.706;10.780;2023-03-23T06:39:45;7.07;;;4.82;;
45114;SDS011;30877;43.706;10.780;2023-03-23T06:42:27;5.82;;;4.78;;
45114;SDS011;30877;43.706;10.780;2023-03-23T06:45:24;6.47;;;5.00;;
45114;SDS011;30877;43.706;10.780;2023-03-23T06:48:06;9.38;;;6.07;;
45114;SDS011;30877;43.706;10.780;2023-03-23T06:50:37;9.07;;;5.85;;
45114;SDS011;30877;43.706;10.780;2023-03-23T06:53:05;9.90;;;6.25;;
45114;SDS011;30877;43.706;10.780;2023-03-23T06:55:32;7.88;;;6.55;;
45114;SDS011;30877;43.706;10.780;2023-03-23T06:58:02;8.57;;;6.78;;
45114;SDS011;30877;43.706;10.780;2023-03-23T07:00:30;8.73;;;7.60;;
45114;SDS011;30877;43.706;10.780;2023-03-23T07:02:57;7.43;;;6.35;;
45114;SDS011;30877;43.706;10.780;2023-03-23T07:05:25;6.72;;;6.10;;
45114;SDS011;30877;43.706;10.780;2023-03-23T07:07:52;10.07;;;7.40;;
45114;SDS011;30877;43.706;10.780;2023-03-23T07:10:30;9.32;;;7.60;;
45114;SDS011;30877;43.706;10.780;2023-03-23T07:12:58;10.15;;;6.63;;
45114;SDS011;30877;43.706;10.780;2023-03-23T07:15:28;8.60;;;7.35;;
45114;SDS011;30877;43.706;10.780;2023-03-23T07:17:57;11.65;;;7.50;;
45114;SDS011;30877;43.706;10.780;2023-03-23T07:20:32;11.93;;;7.13;;
45114;SDS011;30877;43.706;10.780;2023-03-23T07:22:58;12.15;;;8.60;;
45114;SDS011;30877;43.706;10.780;2023-03-23T07:25:39;8.88;;;6.90;;
45114;SDS011;30877;43.706;10.780;2023-03-23T07:28:09;8.60;;;6.90;;
45114;SDS011;30877;43.706;10.780;2023-03-23T07:30:38;8.35;;;7.40;;
45114;SDS011;30877;43.706;10.780;2023-03-23T07:33:05;10.48;;;7.18;;
45114;SDS011;30877;43.706;10.780;2023-03-23T07:35:33;10.65;;;8.23;;
45114;SDS011;30877;43.706;10.780;2023-03-23T07:38:06;16.08;;;11.38;;
45114;SDS011;30877;43.706;10.780;2023-03-23T07:40:36;20.98;;;15.10;;
45114;SDS011;30877;43.706;10.780;2023-03-23T07:43:11;26.63;;;16.75;;
45114;SDS011;30877;43.706;10.780;2023-03-23T07:45:58;19.08;;;12.75;;
45114;SDS011;30877;43.706;10.780;2023-03-23T07:48:33;13.35;;;9.60;;
45114;SDS011;30877;43.706;10.780;2023-03-23T07:51:00;10.98;;;7.70;;
45114;SDS011;30877;43.706;10.780;2023-03-23T07:53:29;8.27;;;7.47;;
45114;SDS011;30877;43.706;10.780;2023-03-23T07:56:09;11.70;;;8.38;;
45114;SDS011;30877;43.706;10.780;2023-03-23T07:59:07;11.32;;;8.70;;
45114;SDS011;30877;43.706;10.780;2023-03-23T08:01:38;10.02;;;8.15;;
45114;SDS011;30877;43.706;10.780;2023-03-23T08:04:43;7.07;;;5.57;;
45114;SDS011;30877;43.706;10.780;2023-03-23T08:07:29;7.65;;;6.07;;
45114;SDS011;30877;43.706;10.780;2023-03-23T08:10:24;5.93;;;4.60;;
45114;SDS011;30877;43.706;10.780;2023-03-23T08:13:18;4.30;;;3.78;;
45114;SDS011;30877;43.706;10.780;2023-03-23T08:16:06;8.10;;;4.50;;
45114;SDS011;30877;43.706;10.780;2023-03-23T08:19:02;5.82;;;3.55;;
45114;SDS011;30877;43.706;10.780;2023-03-23T08:21:59;5.38;;;3.70;;
45114;SDS011;30877;43.706;10.780;2023-03-23T08:24:42;4.53;;;3.55;;
45114;SDS011;30877;43.706;10.780;2023-03-23T08:27:35;4.80;;;3.53;;
45114;SDS011;30877;43.706;10.780;2023-03-23T08:30:16;5.28;;;3.13;;
45114;SDS011;30877;43.706;10.780;2023-03-23T08:33:11;3.67;;;2.97;;
45114;SDS011;30877;43.706;10.780;2023-03-23T08:35:39;5.70;;;3.47;;
45114;SDS011;30877;43.706;10.780;2023-03-23T08:38:39;5.15;;;2.85;;
45114;SDS011;30877;43.706;10.780;2023-03-23T08:41:22;5.10;;;3.10;;
45114;SDS011;30877;43.706;10.780;2023-03-23T08:43:49;4.20;;;3.10;;
45114;SDS011;30877;43.706;10.780;2023-03-23T08:46:38;5.43;;;3.03;;
45114;SDS011;30877;43.706;10.780;2023-03-23T08:49:31;5.40;;;3.08;;
45114;SDS011;30877;43.706;10.780;2023-03-23T08:52:21;5.18;;;3.22;;
45114;SDS011;30877;43.706;10.780;2023-03-23T08:55:03;7.35;;;3.20;;
45114;SDS011;30877;43.706;10.780;2023-03-23T08:57:53;4.30;;;3.45;;
45114;SDS011;30877;43.706;10.780;2023-03-23T09:00:49;4.85;;;3.90;;
45114;SDS011;30877;43.706;10.780;2023-03-23T09:03:39;5.32;;;3.70;;
45114;SDS011;30877;43.706;10.780;2023-03-23T09:06:35;5.93;;;3.95;;
45114;SDS011;30877;43.706;10.780;2023-03-23T09:09:04;5.35;;;3.90;;
45114;SDS011;30877;43.706;10.780;2023-03-23T09:11:34;4.45;;;3.33;;
45114;SDS011;30877;43.706;10.780;2023-03-23T09:14:02;6.60;;;3.60;;
45114;SDS011;30877;43.706;10.780;2023-03-23T09:16:30;4.38;;;3.22;;
45114;SDS011;30877;43.706;10.780;2023-03-23T09:18:57;6.45;;;3.60;;
45114;SDS011;30877;43.706;10.780;2023-03-23T09:21:23;4.28;;;3.78;;
45114;SDS011;30877;43.706;10.780;2023-03-23T09:23:50;5.78;;;4.35;;
45114;SDS011;30877;43.706;10.780;2023-03-23T09:26:18;5.75;;;3.80;;
45114;SDS011;30877;43.706;10.780;2023-03-23T09:28:46;5.22;;;3.40;;
45114;SDS011;30877;43.706;10.780;2023-03-23T09:31:12;5.38;;;3.55;;
45114;SDS011;30877;43.706;10.780;2023-03-23T09:33:39;4.25;;;3.10;;
45114;SDS011;30877;43.706;10.780;2023-03-23T09:36:06;6.28;;;3.78;;
45114;SDS011;30877;43.706;10.780;2023-03-23T09:38:38;5.63;;;3.70;;
45114;SDS011;30877;43.706;10.780;2023-03-23T09:41:11;6.43;;;4.07;;
45114;SDS011;30877;43.706;10.780;2023-03-23T09:43:54;7.18;;;4.13;;
45114;SDS011;30877;43.706;10.780;2023-03-23T09:46:32;4.85;;;3.63;;
45114;SDS011;30877;43.706;10.780;2023-03-23T09:49:10;5.35;;;3.00;;
45114;SDS011;30877;43.706;10.780;2023-03-23T09:51:42;6.10;;;3.83;;
45114;SDS011;30877;43.706;10.780;2023-03-23T09:54:12;4.30;;;3.20;;
45114;SDS011;30877;43.706;10.780;2023-03-23T09:56:47;5.47;;;3.35;;
45114;SDS011;30877;43.706;10.780;2023-03-23T09:59:17;4.35;;;3.05;;
45114;SDS011;30877;43.706;10.780;2023-03-23T10:01:50;4.57;;;3.65;;
45114;SDS011;30877;43.706;10.780;2023-03-23T10:04:22;5.88;;;4.65;;
45114;SDS011;30877;43.706;10.780;2023-03-23T10:06:56;6.55;;;4.50;;
45114;SDS011;30877;43.706;10.780;2023-03-23T10:09:26;6.47;;;3.92;;
45114;SDS011;30877;43.706;10.780;2023-03-23T10:11:59;5.65;;;3.83;;
45114;SDS011;30877;43.706;10.780;2023-03-23T10:14:33;11.52;;;4.60;;
45114;SDS011;30877;43.706;10.780;2023-03-23T10:17:12;5.43;;;3.90;;
45114;SDS011;30877;43.706;10.780;2023-03-23T10:19:43;6.72;;;4.90;;
45114;SDS011;30877;43.706;10.780;2023-03-23T10:22:17;4.70;;;4.10;;
45114;SDS011;30877;43.706;10.780;2023-03-23T10:24:51;7.10;;;4.63;;
45114;SDS011;30877;43.706;10.780;2023-03-23T10:27:26;7.55;;;4.65;;
45114;SDS011;30877;43.706;10.780;2023-03-23T10:30:00;7.00;;;4.70;;
45114;SDS011;30877;43.706;10.780;2023-03-23T10:32:37;6.97;;;5.07;;
45114;SDS011;30877;43.706;10.780;2023-03-23T10:35:09;8.50;;;5.00;;
45114;SDS011;30877;43.706;10.780;2023-03-23T10:37:42;6.35;;;4.43;;
45114;SDS011;30877;43.706;10.780;2023-03-23T10:40:15;5.07;;;3.92;;
45114;SDS011;30877;43.706;10.780;2023-03-23T10:42:46;8.90;;;5.25;;
45114;SDS011;30877;43.706;10.780;2023-03-23T10:45:16;6.97;;;4.70;;
45114;SDS011;30877;43.706;10.780;2023-03-23T10:47:46;7.88;;;4.85;;
45114;SDS011;30877;43.706;10.780;2023-03-23T10:50:22;6.20;;;4.43;;
45114;SDS011;30877;43.706;10.780;2023-03-23T10:52:53;5.93;;;4.22;;
45114;SDS011;30877;43.706;10.780;2023-03-23T10:55:24;5.63;;;3.88;;
45114;SDS011;30877;43.706;10.780;2023-03-23T10:58:23;7.35;;;3.75;;
45114;SDS011;30877;43.706;10.780;2023-03-23T11:00:54;6.32;;;3.10;;
45114;SDS011;30877;43.706;10.780;2023-03-23T11:03:24;6.07;;;3.20;;
45114;SDS011;30877;43.706;10.780;2023-03-23T11:05:56;3.00;;;2.70;;
45114;SDS011;30877;43.706;10.780;2023-03-23T11:08:25;5.70;;;3.00;;
45114;SDS011;30877;43.706;10.780;2023-03-23T11:10:56;4.32;;;2.88;;
45114;SDS011;30877;43.706;10.780;2023-03-23T11:13:30;5.30;;;2.90;;
45114;SDS011;30877;43.706;10.780;2023-03-23T11:15:58;4.25;;;2.97;;
45114;SDS011;30877;43.706;10.780;2023-03-23T11:18:26;6.18;;;2.70;;
45114;SDS011;30877;43.706;10.780;2023-03-23T11:21:01;5.03;;;2.70;;
45114;SDS011;30877;43.706;10.780;2023-03-23T11:23:31;4.28;;;2.65;;
45114;SDS011;30877;43.706;10.780;2023-03-23T11:26:02;4.53;;;2.70;;
45114;SDS011;30877;43.706;10.780;2023-03-23T11:28:37;2.83;;;1.85;;
45114;SDS011;30877;43.706;10.780;2023-03-23T11:31:09;4.38;;;2.20;;
45114;SDS011;30877;43.706;10.780;2023-03-23T11:33:38;3.42;;;1.90;;
45114;SDS011;30877;43.706;10.780;2023-03-23T11:36:08;2.13;;;1.48;;
45114;SDS011;30877;43.706;10.780;2023-03-23T11:38:38;2.75;;;1.40;;
45114;SDS011;30877;43.706;10.780;2023-03-23T11:41:09;3.10;;;1.80;;
45114;SDS011;30877;43.706;10.780;2023-03-23T11:43:41;2.47;;;1.40;;
45114;SDS011;30877;43.706;10.780;2023-03-23T11:46:15;2.97;;;1.45;;
45114;SDS011;30877;43.706;10.780;2023-03-23T11:48:53;3.30;;;1.35;;
45114;SDS011;30877;43.706;10.780;2023-03-23T11:51:26;3.97;;;1.00;;
45114;SDS011;30877;43.706;10.780;2023-03-23T11:53:59;2.15;;;1.33;;
45114;SDS011;30877;43.706;10.780;2023-03-23T11:56:38;2.67;;;1.17;;
45114;SDS011;30877;43.706;10.780;2023-03-23T11:59:10;3.63;;;1.15;;
45114;SDS011;30877;43.706;10.780;2023-03-23T12:01:46;2.05;;;1.15;;
45114;SDS011;30877;43.706;10.780;2023-03-23T12:07:07;2.80;;;0.93;;
45114;SDS011;30877;43.706;10.780;2023-03-23T12:09:47;2.40;;;1.60;;
45114;SDS011;30877;43.706;10.780;2023-03-23T12:12:24;3.78;;;1.50;;
45114;SDS011;30877;43.706;10.780;2023-03-23T12:15:04;2.80;;;0.90;;
45114;SDS011;30877;43.706;10.780;2023-03-23T12:17:42;1.73;;;1.00;;
45114;SDS011;30877;43.706;10.780;2023-03-23T12:20:19;2.45;;;1.27;;
45114;SDS011;30877;43.706;10.780;2023-03-23T12:22:58;2.42;;;1.00;;
45114;SDS011;30877;43.706;10.780;2023-03-23T12:28:47;2.55;;;1.30;;
45114;SDS011;30877;43.706;10.780;2023-03-23T12:31:42;3.33;;;1.20;;
45114;SDS011;30877;43.706;10.780;2023-03-23T12:34:21;2.83;;;1.05;;
45114;SDS011;30877;43.706;10.780;2023-03-23T12:36:58;3.38;;;1.42;;
45114;SDS011;30877;43.706;10.780;2023-03-23T12:39:42;2.42;;;1.20;;
45114;SDS011;30877;43.706;10.780;2023-03-23T12:42:31;4.90;;;1.48;;
45114;SDS011;30877;43.706;10.780;2023-03-23T12:45:08;4.70;;;1.55;;
45114;SDS011;30877;43.706;10.780;2023-03-23T12:47:47;2.58;;;1.20;;
45114;SDS011;30877;43.706;10.780;2023-03-23T12:50:18;2.15;;;1.00;;
45114;SDS011;30877;43.706;10.780;2023-03-23T12:52:52;1.75;;;0.95;;
45114;SDS011;30877;43.706;10.780;2023-03-23T12:55:25;2.50;;;1.13;;
45114;SDS011;30877;43.706;10.780;2023-03-23T12:57:59;2.75;;;1.40;;
45114;SDS011;30877;43.706;10.780;2023-03-23T13:00:33;4.32;;;1.67;;
45114;SDS011;30877;43.706;10.780;2023-03-23T13:03:17;4.18;;;1.77;;
45114;SDS011;30877;43.706;10.780;2023-03-23T13:05:53;3.83;;;1.95;;
45114;SDS011;30877;43.706;10.780;2023-03-23T13:08:25;4.13;;;1.85;;
45114;SDS011;30877;43.706;10.780;2023-03-23T13:10:56;3.70;;;1.30;;
45114;SDS011;30877;43.706;10.780;2023-03-23T13:13:39;2.83;;;1.40;;
45114;SDS011;30877;43.706;10.780;2023-03-23T13:16:11;2.80;;;1.00;;
45114;SDS011;30877;43.706;10.780;2023-03-23T13:18:49;1.75;;;1.00;;
45114;SDS011;30877;43.706;10.780;2023-03-23T13:21:25;2.45;;;1.13;;
45114;SDS011;30877;43.706;10.780;2023-03-23T13:23:57;3.03;;;1.10;;
45114;SDS011;30877;43.706;10.780;2023-03-23T13:26:29;2.83;;;0.90;;
45114;SDS011;30877;43.706;10.780;2023-03-23T13:28:57;3.65;;;1.23;;
45114;SDS011;30877;43.706;10.780;2023-03-23T13:31:28;2.13;;;1.10;;
45114;SDS011;30877;43.706;10.780;2023-03-23T13:34:02;4.43;;;1.30;;
45114;SDS011;30877;43.706;10.780;2023-03-23T13:36:33;1.90;;;1.00;;
45114;SDS011;30877;43.706;10.780;2023-03-23T13:39:02;3.15;;;1.10;;
45114;SDS011;30877;43.706;10.780;2023-03-23T13:41:33;3.92;;;1.20;;
45114;SDS011;30877;43.706;10.780;2023-03-23T13:44:18;2.38;;;1.13;;
45114;SDS011;30877;43.706;10.780;2023-03-23T13:46:55;2.55;;;1.08;;
45114;SDS011;30877;43.706;10.780;2023-03-23T13:49:31;2.47;;;1.02;;
45114;SDS011;30877;43.706;10.780;2023-03-23T13:52:00;3.88;;;1.13;;
45114;SDS011;30877;43.706;10.780;2023-03-23T13:54:43;1.77;;;1.00;;
45114;SDS011;30877;43.706;10.780;2023-03-23T13:57:33;2.58;;;1.13;;
45114;SDS011;30877;43.706;10.780;2023-03-23T14:00:12;2.45;;;1.35;;
45114;SDS011;30877;43.706;10.780;2023-03-23T14:03:00;2.83;;;1.20;;
45114;SDS011;30877;43.706;10.780;2023-03-23T14:05:34;2.80;;;0.82;;
45114;SDS011;30877;43.706;10.780;2023-03-23T14:08:09;3.38;;;1.42;;
45114;SDS011;30877;43.706;10.780;2023-03-23T14:10:39;2.45;;;1.30;;
45114;SDS011;30877;43.706;10.780;2023-03-23T14:13:16;1.65;;;0.85;;
45114;SDS011;30877;43.706;10.780;2023-03-23T14:15:54;3.42;;;1.38;;
45114;SDS011;30877;43.706;10.780;2023-03-23T14:18:24;2.63;;;1.20;;
45114;SDS011;30877;43.706;10.780;2023-03-23T14:20:57;4.00;;;1.45;;
45114;SDS011;30877;43.706;10.780;2023-03-23T14:23:25;2.65;;;1.23;;
45114;SDS011;30877;43.706;10.780;2023-03-23T14:25:56;1.98;;;1.10;;
45114;SDS011;30877;43.706;10.780;2023-03-23T14:28:45;3.00;;;1.23;;
45114;SDS011;30877;43.706;10.780;2023-03-23T14:31:17;3.65;;;1.23;;
45114;SDS011;30877;43.706;10.780;2023-03-23T14:33:45;3.35;;;1.30;;
45114;SDS011;30877;43.706;10.780;2023-03-23T14:36:15;2.75;;;1.30;;
45114;SDS011;30877;43.706;10.780;2023-03-23T14:38:46;3.72;;;1.98;;
45114;SDS011;30877;43.706;10.780;2023-03-23T14:41:13;2.67;;;1.67;;
45114;SDS011;30877;43.706;10.780;2023-03-23T14:43:40;2.47;;;1.70;;
45114;SDS011;30877;43.706;10.780;2023-03-23T14:46:07;3.30;;;1.63;;
45114;SDS011;30877;43.706;10.780;2023-03-23T14:48:37;2.95;;;0.98;;
45114;SDS011;30877;43.706;10.780;2023-03-23T14:51:05;2.72;;;1.33;;
45114;SDS011;30877;43.706;10.780;2023-03-23T14:53:35;2.30;;;1.20;;
45114;SDS011;30877;43.706;10.780;2023-03-23T14:56:03;2.60;;;1.55;;
45114;SDS011;30877;43.706;10.780;2023-03-23T14:58:36;3.13;;;1.38;;
45114;SDS011;30877;43.706;10.780;2023-03-23T15:01:05;3.13;;;1.58;;
45114;SDS011;30877;43.706;10.780;2023-03-23T15:03:36;2.30;;;1.52;;
45114;SDS011;30877;43.706;10.780;2023-03-23T15:06:07;3.60;;;1.45;;
45114;SDS011;30877;43.706;10.780;2023-03-23T15:08:39;3.08;;;1.17;;
45114;SDS011;30877;43.706;10.780;2023-03-23T15:11:08;2.05;;;1.10;;
45114;SDS011;30877;43.706;10.780;2023-03-23T15:13:46;1.77;;;1.00;;
45114;SDS011;30877;43.706;10.780;2023-03-23T15:16:15;5.43;;;1.50;;
45114;SDS011;30877;43.706;10.780;2023-03-23T15:18:47;3.58;;;1.00;;
45114;SDS011;30877;43.706;10.780;2023-03-23T15:21:20;1.85;;;0.98;;